Météo Nord-Pas-de-Calais   La météo au plus près de chez vous

Station météorologique

Observations météo à Brive-Souillac (19147)

19147001 295 m Dernier relevé à 14:24
22.8°C
Humidité 61 % Vent 13.3 km/h 1021.8 hPa

Journée consultée

Lundi 31 Août 2026

Synthèse de la journée

Périodes de référence en UTC

Température maximale

23.1°C

à 14:00

06h 06h

Température minimale

12.2°C

à 07:30

18h 18h

Rafale maximale

25 km/h

à 12:24

00h 00h

Précipitations

0 mm

Cumul quotidien

06h 06h

Graphiques de la journée

Heure locale Réduire

Données détaillées

Relevés météo

Pas de 6 minutes Afficher les relevés infra-horaires
Relevés météo détaillés à Brive-Souillac pour le Lundi 31 Août 2026
Heure Température °C Point de rosée °C Humidité % Vent moyen (raf.), km/h Précipitations mm Visibilité m Pression hPa Nébulosité Octas
14:24 22.8 °C 14.4 °C 59 % 10 km/h (20 km/h) 0 mm0 mm 60000 m 1021.5 hPa
14:18 22.9 °C 14.2 °C 58 % 10 km/h (19 km/h) 0 mm0 mm 60000 m 1021.5 hPa
14:12 22.7 °C 14.5 °C 60 % 10 km/h (18 km/h) 0 mm0 mm 60000 m 1021.5 hPa
14:06 23 °C 14.6 °C 59 % 10 km/h (19 km/h) 0 mm0 mm 60000 m 1021.5 hPa
14:00 23.1 °C 15.2 °C 61 % 10 km/h (16 km/h) 0 mm0 mm 60000 m 1021.5 hPa
13:54 22.6 °C 14.7 °C 61 % 9 km/h (16 km/h) 0 mm0 mm 60000 m 1021.6 hPa
13:48 22.3 °C 15.4 °C 65 % 9 km/h (19 km/h) 0 mm0 mm 60000 m 1021.7 hPa
13:42 21.6 °C 15.4 °C 68 % 12 km/h (19 km/h) 0 mm0 mm 60000 m 1021.8 hPa
13:36 21.7 °C 15.5 °C 68 % 16 km/h (24 km/h) 0 mm0 mm 60000 m 1021.9 hPa
13:30 22.1 °C 15.4 °C 66 % 16 km/h (24 km/h) 0 mm0 mm 60000 m 1021.8 hPa
13:24 22.4 °C 14.5 °C 61 % 13 km/h (23 km/h) 0 mm0 mm 60000 m 1021.8 hPa
13:18 22.8 °C 15.1 °C 62 % 13 km/h (22 km/h) 0 mm0 mm 60000 m 1021.7 hPa
13:12 22.9 °C 14.5 °C 59 % 11 km/h (22 km/h) 0 mm0 mm 60000 m 1021.6 hPa
13:06 22.1 °C 15.4 °C 66 % 7 km/h (14 km/h) 0 mm0 mm 60000 m 1021.7 hPa
13:00 21.7 °C 15.1 °C 66 % 8 km/h (14 km/h) 0 mm0 mm 60000 m 1021.8 hPa
12:54 21.2 °C 15.1 °C 68 % 9 km/h (18 km/h) 0 mm0 mm 60000 m 1021.9 hPa
12:48 21.4 °C 14.8 °C 66 % 11 km/h (18 km/h) 0 mm0 mm 60000 m 1021.9 hPa
12:42 21.8 °C 14.7 °C 64 % 10 km/h (21 km/h) 0 mm0 mm 60000 m 1021.9 hPa
12:36 21.9 °C 14.8 °C 64 % 13 km/h (23 km/h) 0 mm0 mm 60000 m 1021.8 hPa
12:30 22.2 °C 15.1 °C 64 % 14 km/h (23 km/h) 0 mm0 mm 60000 m 1021.8 hPa
12:24 21.9 °C 14.5 °C 63 % 15 km/h (25 km/h) 0 mm0 mm 60000 m 1021.8 hPa
12:18 21.4 °C 14.8 °C 66 % 14 km/h (23 km/h) 0 mm0 mm 60000 m 1022 hPa
12:12 21 °C 14.6 °C 67 % 12 km/h (19 km/h) 0 mm0 mm 60000 m 1022.1 hPa
12:06 21.2 °C 14.8 °C 67 % 12 km/h (23 km/h) 0 mm0 mm 60000 m 1022 hPa
12:00 21.4 °C 15.5 °C 69 % 9 km/h (23 km/h) 0 mm0 mm 60000 m 1022 hPa 6 Octas
11:54 21.1 °C 15.9 °C 72 % 10 km/h (19 km/h) 0 mm0 mm 60000 m 1022 hPa
11:48 20.2 °C 15.2 °C 73 % 12 km/h (19 km/h) 0 mm0 mm 60000 m 1022 hPa
11:42 20.4 °C 15.4 °C 73 % 12 km/h (18 km/h) 0 mm0 mm 60000 m 1022.1 hPa
11:36 20.2 °C 15.6 °C 75 % 11 km/h (18 km/h) 0 mm0 mm 60000 m 1022.1 hPa
11:30 20.5 °C 15.7 °C 74 % 10 km/h (16 km/h) 0 mm0 mm 60000 m 1022.1 hPa
11:24 20.2 °C 15.4 °C 74 % 11 km/h (21 km/h) 0 mm0 mm 60000 m 1022 hPa
11:18 19.9 °C 15.1 °C 74 % 11 km/h (20 km/h) 0 mm0 mm 60000 m 1022.2 hPa
11:12 20 °C 15.2 °C 74 % 12 km/h (18 km/h) 0 mm0 mm 60000 m 1022.1 hPa
11:06 19.8 °C 15.2 °C 75 % 12 km/h (20 km/h) 0 mm0 mm 60000 m 1022.1 hPa
11:00 19.6 °C 15.3 °C 76 % 11 km/h (20 km/h) 0 mm0 mm 59750 m 1022.1 hPa 8 Octas
10:54 19.5 °C 15.4 °C 77 % 12 km/h (18 km/h) 0 mm0 mm 59750 m 1022.1 hPa
10:48 19.6 °C 15.5 °C 77 % 13 km/h (24 km/h) 0 mm0 mm 59950 m 1022.1 hPa
10:42 19.6 °C 15.5 °C 77 % 10 km/h (19 km/h) 0 mm0 mm 59690 m 1022 hPa
10:36 19.6 °C 15.9 °C 79 % 11 km/h (20 km/h) 0 mm0 mm 59450 m 1022.1 hPa
10:30 19.2 °C 15.5 °C 79 % 12 km/h (20 km/h) 0 mm0 mm 59100 m 1022.1 hPa
10:24 18.9 °C 15.9 °C 83 % 11 km/h (19 km/h) 0 mm0 mm 59030 m 1022.1 hPa
10:18 18.9 °C 15.8 °C 82 % 11 km/h (19 km/h) 0 mm0 mm 20000 m 1022.1 hPa
10:12 18.9 °C 15.8 °C 82 % 10 km/h (19 km/h) 0 mm0 mm 57250 m 1022.1 hPa
10:06 18.9 °C 16.1 °C 84 % 9 km/h (18 km/h) 0 mm0 mm 56610 m 1022 hPa
10:00 18.4 °C 16.2 °C 87 % 7 km/h (14 km/h) 0 mm0 mm 56620 m 1022 hPa 6 Octas
09:54 18.1 °C 16.4 °C 90 % 8 km/h (15 km/h) 0 mm0 mm 56570 m 1022.1 hPa
09:48 17.6 °C 16.6 °C 94 % 7 km/h (12 km/h) 0 mm0 mm 57290 m 1022 hPa
09:42 17.2 °C 16.4 °C 95 % 6 km/h (11 km/h) 0 mm0 mm 55870 m 1022 hPa
09:36 17 °C 16.4 °C 96 % 6 km/h (11 km/h) 0 mm0 mm 51330 m 1022 hPa
09:30 16.7 °C 16.4 °C 98 % 5 km/h (9 km/h) 0 mm0 mm 49790 m 1022 hPa
09:24 16.4 °C 16.2 °C 99 % 5 km/h (8 km/h) 0 mm0 mm 19930 m 1022.1 hPa
09:18 16.3 °C 16.3 °C 100 % 5 km/h (8 km/h) 0 mm0 mm 19930 m 1022.1 hPa
09:12 16 °C 16 °C 100 % 6 km/h (9 km/h) 0 mm0 mm 16410 m 1022 hPa
09:06 15.8 °C 15.8 °C 100 % 5 km/h (9 km/h) 0 mm0 mm 10610 m 1022.1 hPa
09:00 15.6 °C 15.6 °C 100 % 3 km/h (7 km/h) 0 mm0 mm 2520 m 1022.1 hPa 8 Octas
08:54 15.4 °C 15.4 °C 100 % 3 km/h (7 km/h) 0 mm0 mm 1890 m 1022 hPa
08:48 15.3 °C 15.3 °C 100 % 3 km/h (5 km/h) 0 mm0 mm 7840 m 1021.9 hPa
08:42 15.1 °C 15.1 °C 100 % 4 km/h (5 km/h) 0 mm0 mm 5510 m 1021.9 hPa
08:36 14.7 °C 14.7 °C 100 % 4 km/h (5 km/h) 0 mm0 mm 2150 m 1021.9 hPa
08:30 14.4 °C 14.4 °C 100 % 3 km/h (5 km/h) 0 mm0 mm 1580 m 1021.9 hPa
08:24 14.1 °C 14.1 °C 100 % 3 km/h (3 km/h) 0 mm0 mm 1250 m 1021.9 hPa
08:18 13.8 °C 13.8 °C 100 % 3 km/h (6 km/h) 0 mm0 mm 1010 m 1021.9 hPa
08:12 13.2 °C 13.2 °C 100 % 5 km/h (6 km/h) 0 mm0 mm 420 m 1022 hPa
08:06 12.7 °C 12.7 °C 100 % 5 km/h (7 km/h) 0 mm0 mm 200 m 1022 hPa
08:00 12.6 °C 12.6 °C 100 % 4 km/h (7 km/h) 0 mm0 mm 150 m 1021.9 hPa 9 Octas
07:54 12.5 °C 12.5 °C 100 % 2 km/h (5 km/h) 0 mm0 mm 160 m 1021.9 hPa
07:48 12.4 °C 12.4 °C 100 % 2 km/h (4 km/h) 0 mm0 mm 210 m 1021.9 hPa
07:42 12.3 °C 12.3 °C 100 % 2 km/h (5 km/h) 0 mm0 mm 600 m 1021.8 hPa
07:36 12.3 °C 12.1 °C 99 % 0 km/h (5 km/h) 0 mm0 mm 12860 m 1021.8 hPa
07:30 12.2 °C 11.9 °C 98 % 0 km/h (3 km/h) 0 mm0 mm 60000 m 1021.8 hPa
07:24 12.4 °C 12.2 °C 99 % 2 km/h (3 km/h) 0 mm0 mm 59390 m 1021.8 hPa
07:18 12.4 °C 12.2 °C 99 % 2 km/h (3 km/h) 0 mm0 mm 59390 m 1021.8 hPa
07:12 12.5 °C 12.2 °C 98 % 0 km/h (3 km/h) 0 mm0 mm 60000 m 1021.7 hPa
07:06 12.6 °C 12.4 °C 99 % 0 km/h (3 km/h) 0 mm0 mm 60000 m 1021.7 hPa
07:00 12.7 °C 12.5 °C 99 % 2 km/h (4 km/h) 0 mm0 mm 56840 m 1021.7 hPa
06:54 12.8 °C 12.8 °C 100 % 3 km/h (4 km/h) 0 mm0 mm 57850 m 1021.5 hPa
06:48 12.8 °C 12.5 °C 98 % 2 km/h (3 km/h) 0 mm0 mm 59690 m 1021.5 hPa
06:42 13 °C 12.7 °C 98 % 2 km/h (3 km/h) 0 mm0 mm 60000 m 1021.5 hPa
06:36 13.1 °C 13.1 °C 100 % 2 km/h (5 km/h) 0 mm0 mm 58580 m 1021.5 hPa
06:30 13.1 °C 12.9 °C 99 % 2 km/h (5 km/h) 0 mm0 mm 58580 m 1021.5 hPa
06:24 13.2 °C 12.7 °C 97 % 2 km/h (4 km/h) 0 mm0 mm 60000 m 1021.5 hPa
06:18 13.4 °C 13.1 °C 98 % 2 km/h (4 km/h) 0 mm0 mm 60000 m 1021.5 hPa
06:12 13.5 °C 13.3 °C 99 % 2 km/h (4 km/h) 0 mm0 mm 60000 m 1021.5 hPa
06:06 13.5 °C 13 °C 97 % 3 km/h (4 km/h) 0 mm0 mm 60000 m 1021.4 hPa
06:00 13.6 °C 13.3 °C 98 % 2 km/h (4 km/h) 0 mm0 mm 60000 m 1021.4 hPa 6 Octas
05:54 13.6 °C 13.4 °C 99 % 2 km/h (3 km/h) 0 mm0 mm 60000 m 1021.4 hPa
05:48 13.5 °C 13.3 °C 99 % 2 km/h (3 km/h) 0 mm0 mm 60000 m 1021.5 hPa
05:42 13.5 °C 13.5 °C 100 % 2 km/h (3 km/h) 0 mm0 mm 60000 m 1021.5 hPa
05:36 13.5 °C 13.3 °C 99 % 2 km/h (4 km/h) 0 mm0 mm 57430 m 1021.5 hPa
05:30 13.5 °C 13.2 °C 98 % 3 km/h (5 km/h) 0 mm0 mm 56840 m 1021.5 hPa
05:24 13.6 °C 13.3 °C 98 % 3 km/h (5 km/h) 0 mm0 mm 60000 m 1021.6 hPa
05:18 13.6 °C 13.3 °C 98 % 3 km/h (3 km/h) 0 mm0 mm 60000 m 1021.5 hPa
05:12 13.7 °C 13.2 °C 97 % 2 km/h (3 km/h) 0 mm0 mm 60000 m 1021.5 hPa
05:06 13.9 °C 13.3 °C 96 % 0 km/h (3 km/h) 0 mm0 mm 60000 m 1021.5 hPa
05:00 14.2 °C 13.9 °C 98 % 2 km/h (4 km/h) 0 mm0 mm 60000 m 1021.5 hPa
04:54 14.3 °C 14.1 °C 99 % 3 km/h (5 km/h) 0 mm0 mm 60000 m 1021.4 hPa
04:48 14.4 °C 14.1 °C 98 % 3 km/h (5 km/h) 0 mm0 mm 60000 m 1021.3 hPa
04:42 14.6 °C 14.1 °C 97 % 2 km/h (3 km/h) 0 mm0 mm 60000 m 1021.3 hPa
04:36 14.9 °C 14.1 °C 95 % 2 km/h (3 km/h) 0 mm0 mm 60000 m 1021.4 hPa
04:30 15 °C 14 °C 94 % 0 km/h (3 km/h) 0 mm0 mm 60000 m 1021.3 hPa
04:24 15.3 °C 14.3 °C 94 % 0 km/h (3 km/h) 0 mm0 mm 60000 m 1021.2 hPa
04:18 15.5 °C 14.7 °C 95 % 0 km/h (4 km/h) 0 mm0 mm 60000 m 1021.2 hPa
04:12 15.6 °C 15 °C 96 % 2 km/h (5 km/h) 0 mm0 mm 60000 m 1021.2 hPa
04:06 15.5 °C 14.7 °C 95 % 2 km/h (5 km/h) 0 mm0 mm 60000 m 1021.2 hPa
04:00 15.6 °C 14.8 °C 95 % 3 km/h (4 km/h) 0 mm0 mm 60000 m 1021.2 hPa 7 Octas
03:54 15.5 °C 14.7 °C 95 % 2 km/h (5 km/h) 0 mm0 mm 60000 m 1021.2 hPa
03:48 15.4 °C 14.8 °C 96 % 3 km/h (5 km/h) 0 mm0 mm 60000 m 1021.1 hPa
03:42 15.4 °C 14.8 °C 96 % 3 km/h (4 km/h) 0 mm0 mm 60000 m 1021.1 hPa
03:36 15.4 °C 14.8 °C 96 % 2 km/h (4 km/h) 0 mm0 mm 60000 m 1021.1 hPa
03:30 15.4 °C 14.6 °C 95 % 0 km/h (3 km/h) 0 mm0 mm 60000 m 1021.1 hPa
03:24 15.4 °C 14.8 °C 96 % 0 km/h (3 km/h) 0 mm0 mm 60000 m 1021.1 hPa
03:18 15.6 °C 14.6 °C 94 % 0 km/h (3 km/h) 0 mm0 mm 60000 m 1021 hPa
03:12 15.7 °C 14.7 °C 94 % 0 km/h (3 km/h) 0 mm0 mm 60000 m 1020.9 hPa
03:06 15.8 °C 14.8 °C 94 % 0 km/h (3 km/h) 0 mm0 mm 60000 m 1020.9 hPa
03:00 15.8 °C 14.7 °C 93 % 0 km/h (2 km/h) 0 mm0 mm 60000 m 1021 hPa
02:54 15.9 °C 14.9 °C 94 % 0 km/h (3 km/h) 0 mm0 mm 60000 m 1020.9 hPa
02:48 16 °C 14.9 °C 93 % 0 km/h (3 km/h) 0 mm0 mm 60000 m 1021 hPa
02:42 16.1 °C 15 °C 93 % 2 km/h (5 km/h) 0 mm0 mm 60000 m 1020.9 hPa
02:36 16.2 °C 15.1 °C 93 % 3 km/h (6 km/h) 0 mm0 mm 60000 m 1021 hPa
02:30 16.1 °C 15 °C 93 % 4 km/h (7 km/h) 0 mm0 mm 60000 m 1021 hPa
02:24 16 °C 15 °C 94 % 4 km/h (7 km/h) 0 mm0 mm 60000 m 1021 hPa
02:18 15.9 °C 14.9 °C 94 % 3 km/h (5 km/h) 0 mm0 mm 60000 m 1021 hPa
02:12 15.8 °C 14.7 °C 93 % 3 km/h (4 km/h) 0 mm0 mm 60000 m 1021 hPa
02:06 15.9 °C 14.8 °C 93 % 2 km/h (6 km/h) 0 mm0 mm 60000 m 1021 hPa
02:00 16 °C 14.9 °C 93 % 3 km/h (6 km/h) 0 mm0 mm 60000 m 1020.9 hPa
01:54 16 °C 14.9 °C 93 % 2 km/h (5 km/h) 0 mm0 mm 60000 m 1020.9 hPa
01:48 16 °C 14.7 °C 92 % 0 km/h (4 km/h) 0 mm0 mm 60000 m 1020.9 hPa
01:42 16.1 °C 14.8 °C 92 % 2 km/h (5 km/h) 0 mm0 mm 60000 m 1020.8 hPa
01:36 16.2 °C 14.9 °C 92 % 2 km/h (4 km/h) 0 mm0 mm 60000 m 1020.8 hPa
01:30 16.2 °C 14.9 °C 92 % 2 km/h (4 km/h) 0 mm0 mm 60000 m 1020.7 hPa
01:24 16.3 °C 15 °C 92 % 2 km/h (3 km/h) 0 mm0 mm 60000 m 1020.6 hPa
01:18 16.5 °C 15 °C 91 % 2 km/h (3 km/h) 0 mm0 mm 60000 m 1020.4 hPa
01:12 16.8 °C 15.1 °C 90 % 2 km/h (4 km/h) 0 mm0 mm 60000 m 1020.4 hPa
01:06 16.9 °C 15.1 °C 89 % 2 km/h (4 km/h) 0 mm0 mm 60000 m 1020.3 hPa
01:00 17.1 °C 15.3 °C 89 % 2 km/h (4 km/h) 0 mm0 mm 60000 m 1020.1 hPa
00:54 17.3 °C 15.3 °C 88 % 2 km/h (5 km/h) 0 mm0 mm 60000 m 1020.1 hPa
00:48 17.4 °C 15.4 °C 88 % 3 km/h (5 km/h) 0 mm0 mm 60000 m 1020.1 hPa
00:42 17.6 °C 15.4 °C 87 % 5 km/h (7 km/h) 0 mm0 mm 60000 m 1020.1 hPa
00:36 17.7 °C 15.3 °C 86 % 5 km/h (7 km/h) 0 mm0 mm 60000 m 1020 hPa
00:30 18 °C 15.4 °C 85 % 4 km/h (7 km/h) 0 mm0 mm 60000 m 1019.8 hPa
00:24 18.1 °C 15.4 °C 84 % 3 km/h (5 km/h) 0 mm0 mm 60000 m 1019.7 hPa
00:18 18.4 °C 15.5 °C 83 % 4 km/h (6 km/h) 0 mm0 mm 60000 m 1019.6 hPa
00:12 18.5 °C 15.6 °C 83 % 3 km/h (6 km/h) 0 mm0 mm 60000 m 1019.5 hPa
00:06 18.6 °C 15.5 °C 82 % 4 km/h (6 km/h) 0 mm0 mm 60000 m 1019.6 hPa
00:00 18.6 °C 15.5 °C 82 % 5 km/h (9 km/h) 0 mm0 mm 60000 m 1019.5 hPa 7 Octas

Données via Météo-France

Relevés météo à Brive-Souillac

Cette page rassemble les observations de la station de Brive-Souillac : température, humidité, vent, précipitations et pression atmosphérique. Les graphiques facilitent le suivi de la journée, tandis que le tableau donne accès aux mesures horaires et infra-horaires disponibles.

Pour replacer ces mesures dans leur contexte, consultez la climatologie de Brive-Souillac ainsi que ses normales et records. Retrouvez aussi la carte des observations météo en temps réel.